HAZ2223 ZSHC-ZGKL
Flight info
| Callsign | HAZ2223 |
|---|---|
| Flight time | N/A |
| Altitude | 34100 |
| Route | ABVIL H24 ISNIR H161 P366 H165 OLTUS R343 ONEMI |
| Aircraft | A359/H-SDE2E3GHIJ3J4J5LM1ORWXY/LB1D1 |
Departure
| Time | 2026-05-06 12:21 |
|---|---|
| Airport | Hangzhou Xiaoshan International Airport (ZSHC) |
Arrival
| Time | N/A |
|---|---|
| Airport | Guilin Liangjiang International Airport (ZGKL) |
| Time | Latitude | Longitude | Altitude | Speed | Heading |
|---|---|---|---|---|---|
| 2026-05-06 11:53 | 30.24164 | 120.42758 | 38 ft | 0 kts | 191° |
| 2026-05-06 12:12 | 30.24166 | 120.42759 | 38 ft | 2 kts | 191° |
| 2026-05-06 12:12 | 30.24191 | 120.42764 | 38 ft | 4 kts | 191° |
| 2026-05-06 12:12 | 30.24216 | 120.42770 | 37 ft | 2 kts | 191° |
| 2026-05-06 12:12 | 30.24240 | 120.42771 | 38 ft | 4 kts | 156° |
| 2026-05-06 12:13 | 30.24257 | 120.42752 | 38 ft | 4 kts | 107° |
| 2026-05-06 12:13 | 30.24261 | 120.42722 | 38 ft | 4 kts | 85° |
| 2026-05-06 12:13 | 30.24256 | 120.42692 | 37 ft | 4 kts | 68° |
| 2026-05-06 12:13 | 30.24253 | 120.42682 | 37 ft | 0 kts | 63° |
| 2026-05-06 12:16 | 30.24264 | 120.42710 | 38 ft | 10 kts | 65° |
| 2026-05-06 12:16 | 30.24306 | 120.42790 | 38 ft | 12 kts | 40° |
| 2026-05-06 12:16 | 30.24399 | 120.42772 | 38 ft | 18 kts | 336° |
| 2026-05-06 12:16 | 30.24444 | 120.42675 | 38 ft | 14 kts | 247° |
| 2026-05-06 12:17 | 30.24382 | 120.42534 | 38 ft | 24 kts | 243° |
| 2026-05-06 12:17 | 30.24311 | 120.42374 | 36 ft | 30 kts | 243° |
| 2026-05-06 12:17 | 30.24233 | 120.42197 | 38 ft | 25 kts | 243° |
| 2026-05-06 12:17 | 30.24153 | 120.42016 | 36 ft | 26 kts | 243° |
| 2026-05-06 12:18 | 30.24068 | 120.41822 | 38 ft | 28 kts | 243° |
| 2026-05-06 12:18 | 30.23982 | 120.41627 | 37 ft | 25 kts | 243° |
| 2026-05-06 12:18 | 30.23902 | 120.41448 | 37 ft | 26 kts | 243° |
| 2026-05-06 12:18 | 30.23819 | 120.41260 | 38 ft | 28 kts | 243° |
| 2026-05-06 12:19 | 30.23732 | 120.41062 | 39 ft | 27 kts | 243° |
| 2026-05-06 12:19 | 30.23696 | 120.40943 | 39 ft | 8 kts | 287° |
| 2026-05-06 12:19 | 30.23737 | 120.40897 | 40 ft | 9 kts | 330° |
| 2026-05-06 12:19 | 30.23803 | 120.40873 | 40 ft | 11 kts | 4° |
| 2026-05-06 12:20 | 30.23861 | 120.40925 | 41 ft | 12 kts | 59° |
| 2026-05-06 12:20 | 30.23946 | 120.41115 | 38 ft | 56 kts | 63° |
| 2026-05-06 12:20 | 30.24239 | 120.41776 | 38 ft | 126 kts | 63° |
| 2026-05-06 12:20 | 30.24707 | 120.42865 | 245 ft | 164 kts | 65° |
| 2026-05-06 12:21 | 30.25193 | 120.44042 | 1056 ft | 161 kts | 65° |
| 2026-05-06 12:21 | 30.25721 | 120.45217 | 1592 ft | 182 kts | 63° |
| 2026-05-06 12:21 | 30.26348 | 120.46597 | 1987 ft | 204 kts | 64° |
| 2026-05-06 12:21 | 30.27018 | 120.48085 | 2693 ft | 210 kts | 64° |
| 2026-05-06 12:22 | 30.27690 | 120.49589 | 3446 ft | 215 kts | 65° |
| 2026-05-06 12:22 | 30.28409 | 120.51124 | 4151 ft | 221 kts | 59° |
| 2026-05-06 12:22 | 30.29486 | 120.52410 | 4831 ft | 227 kts | 32° |
| 2026-05-06 12:22 | 30.31003 | 120.52953 | 5567 ft | 229 kts | 0° |
| 2026-05-06 12:23 | 30.32534 | 120.52566 | 6344 ft | 227 kts | 330° |
| 2026-05-06 12:23 | 30.33709 | 120.51388 | 7110 ft | 227 kts | 303° |
| 2026-05-06 12:23 | 30.34345 | 120.49701 | 7658 ft | 230 kts | 284° |
| 2026-05-06 12:23 | 30.34635 | 120.47880 | 7855 ft | 231 kts | 270° |
| 2026-05-06 12:24 | 30.34307 | 120.46088 | 7893 ft | 230 kts | 245° |
| 2026-05-06 12:24 | 30.33837 | 120.44968 | 7894 ft | 244 kts | 242° |
| 2026-05-06 12:24 | 30.32700 | 120.42505 | 7861 ft | 279 kts | 242° |
| 2026-05-06 12:24 | 30.31790 | 120.40504 | 7866 ft | 285 kts | 242° |
| 2026-05-06 12:25 | 30.31288 | 120.39388 | 7871 ft | 285 kts | 242° |
| 2026-05-06 12:25 | 30.30384 | 120.37368 | 7877 ft | 284 kts | 242° |
| 2026-05-06 12:25 | 30.29473 | 120.35324 | 7880 ft | 283 kts | 242° |
| 2026-05-06 12:25 | 30.28576 | 120.33307 | 7881 ft | 283 kts | 242° |
| 2026-05-06 12:26 | 30.27393 | 120.30646 | 7880 ft | 283 kts | 242° |
| 2026-05-06 12:26 | 30.26782 | 120.29273 | 7880 ft | 283 kts | 242° |
| 2026-05-06 12:26 | 30.25882 | 120.27250 | 7880 ft | 283 kts | 242° |
| 2026-05-06 12:26 | 30.24690 | 120.24572 | 8016 ft | 283 kts | 242° |
| 2026-05-06 12:27 | 30.24082 | 120.23206 | 8279 ft | 285 kts | 242° |
| 2026-05-06 12:27 | 30.22871 | 120.20477 | 9162 ft | 289 kts | 242° |
| 2026-05-06 12:27 | 30.22248 | 120.19076 | 9537 ft | 290 kts | 242° |
| 2026-05-06 12:27 | 30.21323 | 120.17001 | 9803 ft | 291 kts | 242° |
| 2026-05-06 12:28 | 30.20394 | 120.14917 | 9842 ft | 292 kts | 242° |
| 2026-05-06 12:28 | 30.19459 | 120.12830 | 10031 ft | 294 kts | 242° |
| 2026-05-06 12:28 | 30.18495 | 120.10674 | 10276 ft | 313 kts | 242° |
| 2026-05-06 12:28 | 30.17465 | 120.08370 | 10586 ft | 333 kts | 243° |
| 2026-05-06 12:29 | 30.16371 | 120.05929 | 10928 ft | 349 kts | 243° |
| 2026-05-06 12:29 | 30.15244 | 120.03416 | 11520 ft | 356 kts | 243° |
| 2026-05-06 12:29 | 30.14115 | 120.00901 | 12185 ft | 361 kts | 243° |
| 2026-05-06 12:29 | 30.12949 | 119.98303 | 12850 ft | 364 kts | 243° |
| 2026-05-06 12:30 | 30.11772 | 119.95682 | 13428 ft | 370 kts | 243° |
| 2026-05-06 12:30 | 30.10585 | 119.93040 | 13694 ft | 371 kts | 243° |
| 2026-05-06 12:30 | 30.09396 | 119.90396 | 13749 ft | 371 kts | 243° |
| 2026-05-06 12:30 | 30.08208 | 119.87752 | 13742 ft | 372 kts | 243° |
| 2026-05-06 12:31 | 30.07015 | 119.85104 | 13746 ft | 372 kts | 243° |
| 2026-05-06 12:31 | 30.05821 | 119.82455 | 13741 ft | 372 kts | 243° |
| 2026-05-06 12:31 | 30.04627 | 119.79809 | 13746 ft | 372 kts | 243° |
| 2026-05-06 12:31 | 30.03286 | 119.77263 | 13746 ft | 373 kts | 234° |
| 2026-05-06 12:32 | 30.01557 | 119.75018 | 13933 ft | 376 kts | 227° |
| 2026-05-06 12:32 | 29.99716 | 119.72866 | 14599 ft | 377 kts | 226° |
| 2026-05-06 12:32 | 29.97865 | 119.70715 | 15284 ft | 378 kts | 227° |
| 2026-05-06 12:32 | 29.96008 | 119.68553 | 15930 ft | 380 kts | 227° |
| 2026-05-06 12:33 | 29.94147 | 119.66382 | 16536 ft | 382 kts | 227° |
| 2026-05-06 12:33 | 29.92281 | 119.64189 | 17102 ft | 384 kts | 227° |
| 2026-05-06 12:33 | 29.90397 | 119.61986 | 17681 ft | 387 kts | 227° |
| 2026-05-06 12:33 | 29.88499 | 119.59779 | 18262 ft | 389 kts | 227° |
| 2026-05-06 12:34 | 29.86594 | 119.57562 | 18846 ft | 391 kts | 227° |
| 2026-05-06 12:34 | 29.84679 | 119.55333 | 19369 ft | 394 kts | 227° |
| 2026-05-06 12:34 | 29.82740 | 119.53080 | 19894 ft | 397 kts | 227° |
| 2026-05-06 12:34 | 29.80780 | 119.50807 | 20361 ft | 401 kts | 227° |